Time;durP1;ratioP1;P1;durP2;ratioP2;P2;SDS_P1;SDS_P2;PMS_P1;PMS_P2;Temp;Humidity;BMP_temperature;BMP_pressure;BME280_temperature;BME280_humidity;BME280_pressure;Samples;Min_cycle;Max_cycle;Signal;HPM_P1;HPM_P2
2023/04/03 00:01:03;;;;;;;17.05;2.50;;;30.20;30.40;;;;;;5051439;28;20053;-63
2023/04/03 00:03:30;;;;;;;13.07;1.92;;;30.10;30.20;;;;;;5057565;28;20073;-64
2023/04/03 00:05:57;;;;;;;13.70;2.20;;;29.90;30.30;;;;;;5055252;28;20143;-63
2023/04/03 00:08:23;;;;;;;13.90;2.45;;;29.80;30.60;;;;;;5057765;28;20081;-65
2023/04/03 00:10:50;;;;;;;16.60;2.00;;;29.70;31.20;;;;;;5060691;28;20083;-64
2023/04/03 00:13:16;;;;;;;28.13;2.95;;;29.70;31.00;;;;;;5056446;28;20061;-63
2023/04/03 00:15:43;;;;;;;16.33;2.55;;;29.70;31.30;;;;;;5057417;28;20074;-65
2023/04/03 00:18:10;;;;;;;20.58;2.58;;;29.60;31.40;;;;;;5053077;28;20077;-65
2023/04/03 00:20:37;;;;;;;17.63;2.08;;;29.60;31.40;;;;;;5053469;28;20516;-64
2023/04/03 00:23:03;;;;;;;8.75;2.38;;;29.50;31.50;;;;;;5058307;28;20074;-64
2023/04/03 00:25:30;;;;;;;33.25;3.42;;;29.40;31.70;;;;;;5056645;28;20110;-65
2023/04/03 00:27:56;;;;;;;15.02;3.70;;;29.40;32.10;;;;;;5054333;28;20067;-64
2023/04/03 00:30:23;;;;;;;18.08;3.22;;;29.30;32.50;;;;;;5059883;28;20073;-65
2023/04/03 00:32:51;;;;;;;19.98;3.47;;;29.20;32.80;;;;;;5060589;28;20073;-65
2023/04/03 00:35:19;;;;;;;14.05;2.58;;;29.10;32.70;;;;;;5065212;28;20058;-66
2023/04/03 00:37:46;;;;;;;21.83;2.63;;;29.10;32.80;;;;;;5059879;28;20530;-64
2023/04/03 00:40:14;;;;;;;19.50;3.33;;;29.10;33.00;;;;;;5055953;28;20126;-64
2023/04/03 00:42:43;;;;;;;15.48;2.78;;;28.90;33.30;;;;;;5054497;28;20091;-65
2023/04/03 00:45:24;;;;;;;25.42;4.05;;;28.90;32.50;;;;;;5058118;28;20065;-65
2023/04/03 00:47:51;;;;;;;20.60;3.28;;;28.90;32.90;;;;;;5056483;28;20070;-64
2023/04/03 00:50:18;;;;;;;20.35;3.40;;;28.80;33.40;;;;;;5058357;28;20530;-64
2023/04/03 00:52:46;;;;;;;19.00;3.28;;;28.60;33.20;;;;;;5056833;28;20205;-63
2023/04/03 00:55:14;;;;;;;20.80;3.20;;;28.50;33.40;;;;;;5054442;28;20066;-64
2023/04/03 00:57:41;;;;;;;12.80;3.20;;;28.50;33.80;;;;;;5055483;28;20590;-65
2023/04/03 01:00:16;;;;;;;21.08;3.55;;;28.40;33.70;;;;;;5052549;28;20524;-64
2023/04/03 01:02:42;;;;;;;20.38;4.03;;;28.40;33.60;;;;;;5052789;28;20077;-63
2023/04/03 01:05:10;;;;;;;12.75;2.70;;;28.30;33.60;;;;;;5058698;28;20117;-63
2023/04/03 01:07:36;;;;;;;11.75;2.58;;;28.20;33.40;;;;;;5062218;28;20096;-63
2023/04/03 01:10:13;;;;;;;13.13;1.90;;;28.30;33.10;;;;;;5058593;28;20164;-65
2023/04/03 01:12:43;;;;;;;18.80;2.38;;;28.10;32.70;;;;;;5056125;28;20454;-65
2023/04/03 01:15:26;;;;;;;13.15;2.42;;;28.00;32.90;;;;;;5054638;28;20073;-66
2023/04/03 01:17:56;;;;;;;14.18;2.53;;;28.00;32.30;;;;;;5050573;28;20089;-65
2023/04/03 01:20:31;;;;;;;12.13;2.47;;;27.90;33.50;;;;;;5051551;28;20149;-66
2023/04/03 01:23:13;;;;;;;15.47;2.73;;;27.90;31.10;;;;;;5053802;28;20100;-64
2023/04/03 01:25:44;;;;;;;13.02;2.85;;;27.90;29.90;;;;;;5049816;28;20086;-65
2023/04/03 01:28:15;;;;;;;11.27;4.30;;;27.90;30.80;;;;;;5052496;28;20066;-64
2023/04/03 01:31:15;;;;;;;6.93;3.00;;;27.80;30.50;;;;;;5051762;28;20084;-66
2023/04/03 01:33:42;;;;;;;12.30;3.60;;;27.70;31.60;;;;;;5059041;28;20079;-64
2023/04/03 01:36:10;;;;;;;16.23;3.25;;;27.40;32.50;;;;;;5052043;28;20091;-65
2023/04/03 01:38:36;;;;;;;13.35;2.78;;;27.30;32.50;;;;;;5053869;28;20132;-64
2023/04/03 01:41:03;;;;;;;9.45;3.13;;;27.30;32.20;;;;;;5050981;28;20083;-62
2023/04/03 01:43:29;;;;;;;10.25;2.88;;;27.20;31.60;;;;;;5052929;28;20104;-64
2023/04/03 01:45:56;;;;;;;8.10;2.75;;;27.10;31.40;;;;;;5057543;28;20517;-62
2023/04/03 01:48:22;;;;;;;10.68;2.85;;;27.00;31.60;;;;;;5058050;28;20136;-64
2023/04/03 01:50:49;;;;;;;10.63;2.53;;;26.90;31.30;;;;;;5056318;28;20083;-64
2023/04/03 01:53:15;;;;;;;12.55;2.65;;;26.80;30.70;;;;;;5050562;28;20496;-65
2023/04/03 01:55:42;;;;;;;13.88;3.03;;;26.80;30.00;;;;;;5055355;28;20099;-65
2023/04/03 01:58:08;;;;;;;9.52;2.60;;;26.70;30.10;;;;;;5051567;28;20501;-64
2023/04/03 02:00:35;;;;;;;12.68;3.50;;;26.60;31.00;;;;;;5050071;28;20106;-66
2023/04/03 02:03:02;;;;;;;9.93;3.13;;;26.40;30.40;;;;;;5049511;28;20138;-65
2023/04/03 02:05:29;;;;;;;9.50;2.55;;;26.30;30.40;;;;;;5055836;28;20069;-65
2023/04/03 02:07:56;;;;;;;15.73;2.80;;;26.20;29.90;;;;;;5053585;28;20092;-65
2023/04/03 02:10:22;;;;;;;26.67;11.00;;;26.00;30.10;;;;;;5051319;28;20071;-62
2023/04/03 02:12:49;;;;;;;9.57;3.33;;;25.90;30.60;;;;;;5051806;28;20067;-65
2023/04/03 02:15:15;;;;;;;14.07;2.95;;;25.80;30.60;;;;;;5054653;28;20074;-66
2023/04/03 02:17:42;;;;;;;9.93;2.95;;;25.80;32.20;;;;;;5060374;28;20501;-65
2023/04/03 02:20:09;;;;;;;8.65;2.63;;;25.60;32.20;;;;;;5046851;28;20089;-65
2023/04/03 02:22:36;;;;;;;12.70;3.22;;;25.50;32.20;;;;;;5052395;28;20155;-65
2023/04/03 02:25:02;;;;;;;11.13;3.22;;;25.40;33.00;;;;;;5053200;28;20095;-66
2023/04/03 02:27:31;;;;;;;10.32;3.33;;;25.20;33.20;;;;;;5055451;28;20087;-65
2023/04/03 02:29:58;;;;;;;14.55;2.83;;;25.10;33.40;;;;;;5054580;28;20448;-64
2023/04/03 02:32:24;;;;;;;5.63;2.30;;;25.00;34.40;;;;;;5055230;28;20072;-63
2023/04/03 02:34:50;;;;;;;9.52;2.47;;;24.90;31.70;;;;;;5058107;28;20069;-65
2023/04/03 02:37:17;;;;;;;8.63;2.03;;;24.90;32.40;;;;;;5055402;28;20136;-65
2023/04/03 02:39:43;;;;;;;3.50;1.58;;;24.80;32.40;;;;;;5054990;28;20155;-64
2023/04/03 02:42:10;;;;;;;9.70;1.98;;;24.80;31.20;;;;;;5057574;28;20151;-66
2023/04/03 02:44:36;;;;;;;8.40;1.90;;;24.80;31.90;;;;;;5053998;28;20076;-64
2023/04/03 02:47:03;;;;;;;5.55;1.90;;;24.70;32.40;;;;;;5054396;28;20072;-65
2023/04/03 02:49:29;;;;;;;8.00;1.95;;;24.70;32.10;;;;;;5051144;28;20443;-63
2023/04/03 02:51:56;;;;;;;3.42;1.60;;;24.70;32.50;;;;;;5053525;28;20061;-64
2023/04/03 02:54:23;;;;;;;3.05;1.67;;;24.50;33.10;;;;;;5056585;28;20061;-65
2023/04/03 02:56:50;;;;;;;9.90;2.10;;;24.40;33.10;;;;;;5058714;28;20108;-64
2023/04/03 02:59:17;;;;;;;8.00;1.85;;;24.40;33.00;;;;;;5051903;28;20102;-64
2023/04/03 03:01:43;;;;;;;7.85;2.25;;;24.30;33.30;;;;;;5054769;28;20440;-64
2023/04/03 03:04:09;;;;;;;6.53;1.98;;;24.20;33.10;;;;;;5057099;28;20095;-65
2023/04/03 03:06:36;;;;;;;6.30;2.13;;;24.20;33.00;;;;;;5049692;28;20208;-63
2023/04/03 03:09:03;;;;;;;8.13;2.40;;;24.10;33.10;;;;;;5056030;28;20088;-63
2023/04/03 03:11:30;;;;;;;10.40;2.50;;;24.00;33.00;;;;;;5057110;28;20082;-65
2023/04/03 03:13:57;;;;;;;9.40;2.85;;;24.00;33.00;;;;;;5057594;28;20122;-64
2023/04/03 03:16:24;;;;;;;19.23;5.32;;;23.90;33.00;;;;;;5055966;28;20137;-65
2023/04/03 03:18:50;;;;;;;12.63;6.32;;;23.90;33.40;;;;;;5053522;28;20084;-65
2023/04/03 03:21:16;;;;;;;20.75;5.18;;;23.80;33.50;;;;;;5056355;28;20068;-64
2023/04/03 03:23:43;;;;;;;16.45;3.53;;;23.80;35.50;;;;;;5057403;28;20072;-64
2023/04/03 03:26:11;;;;;;;16.15;3.70;;;23.60;37.80;;;;;;5053128;28;20099;-63
2023/04/03 03:28:39;;;;;;;19.25;3.70;;;23.60;38.80;;;;;;5061566;28;20088;-64
2023/04/03 03:31:06;;;;;;;19.00;3.92;;;23.50;39.60;;;;;;5058397;28;20080;-65
2023/04/03 03:33:33;;;;;;;27.92;4.68;;;23.40;40.30;;;;;;5060259;28;20181;-65
2023/04/03 03:36:00;;;;;;;27.85;4.53;;;23.30;40.00;;;;;;5060192;28;20079;-64
2023/04/03 03:38:27;;;;;;;16.70;3.35;;;23.20;40.80;;;;;;5056316;28;20088;-62
2023/04/03 03:40:53;;;;;;;19.58;3.42;;;23.20;40.40;;;;;;5053171;28;20088;-62
2023/04/03 03:43:20;;;;;;;23.88;3.55;;;23.20;40.70;;;;;;5063068;28;20114;-63
2023/04/03 03:45:53;;;;;;;21.77;4.30;;;23.10;40.80;;;;;;5052716;28;20522;-64
2023/04/03 03:48:21;;;;;;;18.15;3.92;;;23.10;40.80;;;;;;5056847;28;20094;-63
2023/04/03 03:50:48;;;;;;;23.70;5.50;;;23.10;41.80;;;;;;5054616;28;20126;-66
2023/04/03 03:53:14;;;;;;;31.13;6.38;;;22.90;42.00;;;;;;5057180;28;20087;-65
2023/04/03 03:55:41;;;;;;;27.60;5.63;;;22.80;41.80;;;;;;5060447;28;20098;-62
2023/04/03 03:58:08;;;;;;;38.13;6.95;;;22.80;42.30;;;;;;5056422;28;20112;-66
2023/04/03 04:00:34;;;;;;;25.45;6.15;;;22.70;42.50;;;;;;5057669;28;20549;-66
2023/04/03 04:03:01;;;;;;;22.38;5.63;;;22.60;42.50;;;;;;5060349;28;20076;-66
2023/04/03 04:05:27;;;;;;;28.13;5.75;;;22.60;43.10;;;;;;5059650;28;20076;-65
2023/04/03 04:07:54;;;;;;;29.23;6.07;;;22.50;43.00;;;;;;5061915;28;20164;-66
2023/04/03 04:10:20;;;;;;;28.60;5.60;;;22.40;43.20;;;;;;5064114;28;20078;-64
2023/04/03 04:12:48;;;;;;;27.98;5.90;;;22.30;43.60;;;;;;5059217;28;20114;-62
2023/04/03 04:15:15;;;;;;;38.60;7.82;;;22.30;43.90;;;;;;5055975;28;20077;-66
2023/04/03 04:17:41;;;;;;;33.33;7.53;;;22.20;44.00;;;;;;5057637;28;20092;-65
2023/04/03 04:20:08;;;;;;;35.20;8.27;;;22.10;45.00;;;;;;5058054;28;20068;-65
2023/04/03 04:22:34;;;;;;;32.00;8.95;;;22.00;44.70;;;;;;5051862;28;20099;-64
2023/04/03 04:25:01;;;;;;;24.83;7.80;;;22.00;44.50;;;;;;5054957;28;20072;-64
2023/04/03 04:27:28;;;;;;;22.13;7.35;;;21.90;43.30;;;;;;5058113;28;20103;-64
2023/04/03 04:29:54;;;;;;;23.65;6.32;;;21.90;42.80;;;;;;5056518;28;20559;-64
2023/04/03 04:32:20;;;;;;;23.40;6.72;;;21.70;43.20;;;;;;5051674;28;20155;-66
2023/04/03 04:34:47;;;;;;;28.02;6.13;;;21.70;42.90;;;;;;5059156;28;20521;-66
2023/04/03 04:37:13;;;;;;;40.42;5.57;;;21.60;42.60;;;;;;5057321;28;20092;-63
2023/04/03 04:39:40;;;;;;;32.50;6.18;;;21.60;42.10;;;;;;5054146;28;20080;-66
2023/04/03 04:42:08;;;;;;;18.00;4.88;;;21.60;41.10;;;;;;5053817;28;20076;-64
2023/04/03 04:44:34;;;;;;;28.40;4.70;;;21.50;40.90;;;;;;5054258;28;20076;-64
2023/04/03 04:47:01;;;;;;;16.60;4.45;;;21.50;41.40;;;;;;5053310;28;20108;-65
2023/04/03 04:49:27;;;;;;;19.45;4.30;;;21.40;41.90;;;;;;5062012;28;20504;-66
2023/04/03 04:51:53;;;;;;;17.98;5.45;;;21.40;41.70;;;;;;5066914;28;20095;-64
2023/04/03 04:54:20;;;;;;;21.95;6.35;;;21.40;41.90;;;;;;5056547;28;20107;-65
2023/04/03 04:56:46;;;;;;;21.17;6.47;;;21.30;41.70;;;;;;5052574;28;20536;-64
2023/04/03 04:59:13;;;;;;;26.02;5.30;;;21.20;42.10;;;;;;5056884;28;20111;-65
2023/04/03 05:01:40;;;;;;;23.50;5.65;;;21.10;43.10;;;;;;5061351;28;20129;-64
2023/04/03 05:04:06;;;;;;;24.48;8.52;;;21.00;41.60;;;;;;5055278;28;20583;-65
2023/04/03 05:06:34;;;;;;;26.38;7.35;;;20.90;41.70;;;;;;5059940;28;20091;-66
2023/04/03 05:09:01;;;;;;;22.75;4.13;;;20.80;41.80;;;;;;5061048;28;20541;-65
2023/04/03 05:11:28;;;;;;;15.73;3.25;;;20.80;41.10;;;;;;5055166;28;20083;-65
2023/04/03 05:13:54;;;;;;;16.27;4.13;;;20.80;40.80;;;;;;5053686;28;20080;-65
2023/04/03 05:16:21;;;;;;;18.77;3.60;;;20.70;41.50;;;;;;5057549;28;20194;-64
2023/04/03 05:18:47;;;;;;;19.60;3.60;;;20.60;41.30;;;;;;5053842;28;20180;-64
2023/04/03 05:21:14;;;;;;;22.17;3.95;;;20.50;41.20;;;;;;5051774;28;20064;-66
2023/04/03 05:23:41;;;;;;;13.57;4.07;;;20.40;41.60;;;;;;5053812;28;20541;-64
2023/04/03 05:26:07;;;;;;;18.17;4.85;;;20.40;41.70;;;;;;5061002;28;20076;-66
2023/04/03 05:28:36;;;;;;;12.52;3.92;;;20.40;42.20;;;;;;5051998;28;20092;-65
2023/04/03 05:31:02;;;;;;;21.63;3.90;;;20.30;41.70;;;;;;5055242;28;20174;-66
2023/04/03 05:33:29;;;;;;;15.45;4.90;;;20.30;41.60;;;;;;5059953;28;20118;-65
2023/04/03 05:35:55;;;;;;;30.73;5.07;;;20.20;42.40;;;;;;5057539;28;20444;-66
2023/04/03 05:38:22;;;;;;;19.02;3.80;;;20.20;42.60;;;;;;5055484;28;20082;-67
2023/04/03 05:40:48;;;;;;;14.50;3.55;;;20.10;43.60;;;;;;5059017;28;20088;-69
2023/04/03 05:43:15;;;;;;;42.65;3.78;;;20.00;42.50;;;;;;5056915;28;20077;-65
2023/04/03 05:45:42;;;;;;;19.98;4.07;;;19.90;42.70;;;;;;5056841;28;20064;-66
2023/04/03 05:48:09;;;;;;;18.27;4.60;;;19.90;43.10;;;;;;5051706;28;20129;-65
2023/04/03 05:50:41;;;;;;;14.43;5.07;;;19.90;42.80;;;;;;5054782;28;20075;-65
2023/04/03 05:53:14;;;;;;;15.80;4.40;;;19.80;43.00;;;;;;5053996;28;20509;-66
2023/04/03 05:55:41;;;;;;;18.35;5.13;;;19.80;43.10;;;;;;5054760;28;20087;-65
2023/04/03 05:58:09;;;;;;;21.33;8.27;;;19.80;42.90;;;;;;5047199;28;20112;-66
2023/04/03 06:00:36;;;;;;;24.08;6.93;;;19.80;42.60;;;;;;5047441;28;20083;-66
2023/04/03 06:03:02;;;;;;;24.35;6.47;;;19.80;42.70;;;;;;5050307;28;20103;-67
2023/04/03 06:05:29;;;;;;;19.88;6.68;;;19.70;44.20;;;;;;5047773;28;20133;-63
2023/04/03 06:07:56;;;;;;;26.55;5.82;;;19.50;43.60;;;;;;5046513;28;20096;-66
2023/04/03 06:10:23;;;;;;;26.73;6.55;;;19.40;44.10;;;;;;5046844;28;20097;-65
2023/04/03 06:12:51;;;;;;;21.27;6.75;;;19.60;44.10;;;;;;5045463;28;20077;-66
2023/04/03 06:15:17;;;;;;;20.27;6.75;;;20.10;44.40;;;;;;5047632;28;20076;-65
2023/04/03 06:17:44;;;;;;;22.45;6.57;;;20.40;42.90;;;;;;5044598;28;20112;-68
2023/04/03 06:20:11;;;;;;;18.90;6.22;;;20.40;43.10;;;;;;5047176;28;20076;-66
2023/04/03 06:22:37;;;;;;;26.38;6.38;;;20.20;42.80;;;;;;5045132;28;20064;-69
2023/04/03 06:25:04;;;;;;;24.73;6.57;;;20.20;42.90;;;;;;5041349;28;20068;-66
2023/04/03 06:27:31;;;;;;;22.08;6.97;;;20.20;43.10;;;;;;5052852;28;20072;-67
2023/04/03 06:29:57;;;;;;;22.83;5.55;;;20.10;43.00;;;;;;5055064;28;20136;-65
2023/04/03 06:32:24;;;;;;;26.23;5.63;;;20.00;43.20;;;;;;5049646;28;20084;-66
2023/04/03 06:34:53;;;;;;;22.73;6.18;;;20.10;44.40;;;;;;5049340;28;20091;-68
2023/04/03 06:37:21;;;;;;;17.33;5.22;;;20.00;44.40;;;;;;5049855;28;20430;-66
2023/04/03 06:39:48;;;;;;;21.58;6.15;;;19.90;43.70;;;;;;5053949;28;20439;-66
2023/04/03 06:42:15;;;;;;;26.08;5.88;;;19.90;43.90;;;;;;5057261;28;20076;-69
2023/04/03 06:44:41;;;;;;;18.38;5.78;;;20.00;43.90;;;;;;5065794;28;20096;-67
2023/04/03 06:47:12;;;;;;;19.83;6.05;;;19.90;44.20;;;;;;5053381;28;20564;-66
2023/04/03 06:49:39;;;;;;;18.33;5.28;;;20.00;44.10;;;;;;5057525;28;20610;-66
2023/04/03 06:52:05;;;;;;;23.60;5.22;;;20.10;44.00;;;;;;5053848;28;20083;-66
2023/04/03 06:54:32;;;;;;;22.55;5.22;;;20.10;43.50;;;;;;5054598;28;20068;-66
2023/04/03 06:56:59;;;;;;;20.67;5.45;;;20.10;43.70;;;;;;5054198;28;20422;-67
2023/04/03 06:59:26;;;;;;;20.67;6.03;;;20.00;44.30;;;;;;5053489;28;20104;-66
2023/04/03 07:01:52;;;;;;;21.05;5.60;;;19.90;44.70;;;;;;5052071;28;20529;-66
2023/04/03 07:04:20;;;;;;;19.60;6.05;;;19.80;44.30;;;;;;5056186;28;20442;-68
2023/04/03 07:06:47;;;;;;;22.25;6.65;;;19.70;45.60;;;;;;5056039;28;20068;-65
2023/04/03 07:09:17;;;;;;;23.27;6.40;;;19.60;44.90;;;;;;5055906;28;20092;-65
2023/04/03 07:11:43;;;;;;;24.83;5.97;;;19.50;45.00;;;;;;5055504;28;20087;-66
2023/04/03 07:14:09;;;;;;;18.48;5.47;;;19.40;44.80;;;;;;5052849;28;20191;-66
2023/04/03 07:16:36;;;;;;;23.63;5.30;;;19.30;45.50;;;;;;5056392;28;20154;-66
2023/04/03 07:19:03;;;;;;;19.92;5.65;;;19.30;45.60;;;;;;5054702;28;20120;-68
2023/04/03 07:21:30;;;;;;;23.15;5.80;;;19.50;45.30;;;;;;5058532;28;20553;-67
2023/04/03 07:23:57;;;;;;;20.85;5.97;;;19.40;45.80;;;;;;5051492;28;20077;-67
2023/04/03 07:26:23;;;;;;;17.65;5.55;;;19.40;46.40;;;;;;5052391;28;20474;-68
2023/04/03 07:28:50;;;;;;;28.00;5.70;;;19.20;46.40;;;;;;5056941;28;21681;-67
2023/04/03 07:31:18;;;;;;;19.08;5.75;;;19.10;46.30;;;;;;5051207;28;20068;-67
2023/04/03 07:33:45;;;;;;;25.25;5.70;;;19.10;46.00;;;;;;5051448;28;20150;-68
2023/04/03 07:36:16;;;;;;;25.10;6.35;;;19.20;46.00;;;;;;5053784;28;20557;-68
2023/04/03 07:38:42;;;;;;;22.83;6.13;;;19.10;46.40;;;;;;5060913;28;20087;-67
2023/04/03 07:41:17;;;;;;;27.52;5.97;;;19.10;46.30;;;;;;5055149;28;20064;-67
2023/04/03 07:43:45;;;;;;;41.05;5.72;;;19.00;46.80;;;;;;5058177;28;20110;-66
2023/04/03 07:46:11;;;;;;;15.88;5.00;;;18.90;46.90;;;;;;5055605;28;20103;-68
2023/04/03 07:48:38;;;;;;;23.73;5.03;;;18.80;46.40;;;;;;5054014;28;20076;-68
2023/04/03 07:51:05;;;;;;;23.08;5.53;;;18.70;46.00;;;;;;5055757;28;20091;-68
2023/04/03 07:53:32;;;;;;;24.77;5.38;;;18.70;46.00;;;;;;5056363;28;20476;-67
2023/04/03 07:56:00;;;;;;;20.20;4.80;;;18.70;46.70;;;;;;5053975;28;20526;-67
2023/04/03 07:58:26;;;;;;;24.98;4.85;;;18.60;46.70;;;;;;5051595;28;20108;-67
2023/04/03 08:00:53;;;;;;;16.95;4.65;;;18.50;48.30;;;;;;5056639;28;20185;-68
2023/04/03 08:03:19;;;;;;;16.15;4.50;;;18.50;47.60;;;;;;5056622;28;20089;-67
2023/04/03 08:05:48;;;;;;;16.30;3.60;;;18.50;47.30;;;;;;5053039;28;20071;-67
2023/04/03 08:08:18;;;;;;;21.83;4.57;;;18.60;47.60;;;;;;5050405;28;20099;-66
2023/04/03 08:10:48;;;;;;;8.05;3.40;;;18.70;48.20;;;;;;5053513;28;20364;-66
2023/04/03 08:13:14;;;;;;;11.35;3.42;;;18.60;47.00;;;;;;5052475;28;20098;-67
2023/04/03 08:15:41;;;;;;;16.92;3.35;;;18.60;47.00;;;;;;5057625;28;20068;-66
2023/04/03 08:18:07;;;;;;;17.75;2.90;;;18.60;47.20;;;;;;5055060;28;20465;-67
2023/04/03 08:20:34;;;;;;;17.00;2.90;;;18.60;46.90;;;;;;5056066;28;20108;-67
2023/04/03 08:23:01;;;;;;;14.85;3.03;;;18.60;47.00;;;;;;5055357;28;20061;-67
2023/04/03 08:25:29;;;;;;;14.00;3.45;;;18.50;47.00;;;;;;5055857;28;20068;-68
2023/04/03 08:27:55;;;;;;;8.98;2.78;;;18.50;48.10;;;;;;5050308;28;20080;-67
2023/04/03 08:30:22;;;;;;;15.10;3.58;;;18.30;47.40;;;;;;5052887;28;20081;-67
2023/04/03 08:32:48;;;;;;;14.23;2.83;;;18.30;47.10;;;;;;5058343;28;20084;-66
2023/04/03 08:35:15;;;;;;;9.52;2.88;;;18.20;46.60;;;;;;5055182;28;20162;-66
2023/04/03 08:37:42;;;;;;;12.57;2.78;;;18.30;46.80;;;;;;5058679;28;20089;-67
2023/04/03 08:40:16;;;;;;;8.85;2.60;;;18.30;46.20;;;;;;5049051;28;20103;-68
2023/04/03 08:43:04;;;;;;;9.13;2.55;;;18.30;45.90;;;;;;5052536;28;20437;-66
2023/04/03 08:45:50;;;;;;;9.27;2.33;;;18.30;46.00;;;;;;5049516;28;20155;-67
2023/04/03 08:48:23;;;;;;;15.40;2.15;;;18.40;46.00;;;;;;5051627;28;20072;-66
2023/04/03 08:50:57;;;;;;;10.88;2.45;;;18.40;46.00;;;;;;5052559;28;20075;-65
2023/04/03 08:53:32;;;;;;;9.15;1.90;;;18.40;46.00;;;;;;5051441;28;20103;-68
2023/04/03 08:56:00;;;;;;;12.43;2.50;;;18.40;46.20;;;;;;5050641;28;20432;-66
2023/04/03 08:58:33;;;;;;;13.50;2.83;;;18.40;46.30;;;;;;5055816;28;20621;-67
2023/04/03 09:01:24;;;;;;;16.10;2.63;;;18.40;46.40;;;;;;5053212;28;20103;-66
2023/04/03 09:03:51;;;;;;;17.58;2.20;;;18.40;46.90;;;;;;5052174;28;20079;-68
2023/04/03 09:06:32;;;;;;;8.35;2.30;;;18.30;46.60;;;;;;5054935;28;20456;-68
2023/04/03 09:09:04;;;;;;;10.40;2.83;;;18.10;47.70;;;;;;5052581;28;21597;-67
2023/04/03 09:11:58;;;;;;;12.98;2.85;;;18.10;47.60;;;;;;5050709;28;20072;-66
2023/04/03 09:14:31;;;;;;;16.05;2.90;;;18.20;47.60;;;;;;5052079;28;20092;-68
2023/04/03 09:17:10;;;;;;;20.30;3.00;;;18.30;47.60;;;;;;5053059;28;20070;-68
2023/04/03 09:19:52;;;;;;;13.38;2.97;;;18.20;47.60;;;;;;5049512;28;20088;-67
2023/04/03 09:22:23;;;;;;;16.20;2.67;;;18.20;48.00;;;;;;5051828;28;20072;-66
2023/04/03 09:25:01;;;;;;;20.83;3.70;;;18.20;48.00;;;;;;5050746;28;20075;-66
2023/04/03 09:27:28;;;;;;;11.38;2.70;;;18.10;47.90;;;;;;5051296;28;20202;-66
2023/04/03 09:29:56;;;;;;;16.20;2.70;;;18.10;48.00;;;;;;5051508;28;20076;-66
2023/04/03 09:32:30;;;;;;;8.65;2.53;;;18.00;48.30;;;;;;5056845;28;20077;-66
2023/04/03 09:35:04;;;;;;;7.20;2.08;;;18.10;48.30;;;;;;5054623;28;20479;-66
2023/04/03 09:37:52;;;;;;;16.02;3.35;;;18.00;48.50;;;;;;5052672;28;20082;-66
2023/04/03 09:40:34;;;;;;;15.50;3.15;;;18.00;48.40;;;;;;5051012;28;20076;-66
2023/04/03 09:43:19;;;;;;;22.35;3.50;;;18.10;48.00;;;;;;5051320;28;20546;-68
2023/04/03 09:45:48;;;;;;;17.52;3.38;;;18.20;47.80;;;;;;5051946;28;20061;-66
2023/04/03 09:48:15;;;;;;;22.15;3.88;;;18.20;47.90;;;;;;5055579;28;20103;-68
2023/04/03 09:50:55;;;;;;;19.40;3.47;;;18.20;47.90;;;;;;5052226;28;20437;-67
2023/04/03 09:53:30;;;;;;;15.88;3.67;;;18.20;47.70;;;;;;5051607;28;20080;-67
2023/04/03 09:55:58;;;;;;;10.18;3.22;;;18.20;47.40;;;;;;5047757;28;20096;-68
2023/04/03 09:58:40;;;;;;;13.75;3.58;;;18.20;47.60;;;;;;5048765;28;20116;-68
2023/04/03 10:01:20;;;;;;;9.93;3.50;;;18.20;47.70;;;;;;5053622;28;20583;-68
2023/04/03 10:04:02;;;;;;;15.27;3.30;;;18.20;47.30;;;;;;5055670;28;20133;-68
2023/04/03 10:06:32;;;;;;;13.23;3.08;;;18.30;46.50;;;;;;5051148;28;20552;-68
2023/04/03 10:09:05;;;;;;;13.00;3.38;;;18.30;46.30;;;;;;5051510;28;20457;-66
2023/04/03 10:11:31;;;;;;;17.00;3.55;;;18.30;47.10;;;;;;5048419;28;20121;-67
2023/04/03 10:14:00;;;;;;;12.23;3.88;;;18.30;47.50;;;;;;5053939;28;20153;-66
2023/04/03 10:16:43;;;;;;;14.45;3.78;;;18.10;48.10;;;;;;5049870;28;20072;-66
2023/04/03 10:19:25;;;;;;;11.20;3.22;;;18.10;48.10;;;;;;5049083;28;20180;-67
2023/04/03 10:21:59;;;;;;;11.00;3.28;;;18.10;48.30;;;;;;5056861;28;20140;-67
2023/04/03 10:24:52;;;;;;;10.60;3.90;;;18.00;48.50;;;;;;5053993;28;20092;-66
2023/04/03 10:27:31;;;;;;;10.52;3.78;;;17.90;48.80;;;;;;5052121;28;20441;-67
2023/04/03 10:30:23;;;;;;;9.48;3.35;;;17.80;49.00;;;;;;5054860;28;20084;-68
2023/04/03 10:33:14;;;;;;;17.35;3.40;;;17.70;49.30;;;;;;5049933;28;20077;-68
2023/04/03 10:36:01;;;;;;;17.92;3.97;;;17.70;49.50;;;;;;5049915;28;20077;-67
2023/04/03 10:39:11;;;;;;;15.05;3.33;;;17.70;49.70;;;;;;5052691;28;20138;-67
2023/04/03 10:41:46;;;;;;;25.13;3.90;;;17.60;50.50;;;;;;5047355;28;20542;-68
2023/04/03 10:44:38;;;;;;;11.23;2.55;;;17.50;50.00;;;;;;5050989;28;20526;-66
2023/04/03 10:47:20;;;;;;;12.77;2.75;;;17.50;49.30;;;;;;5050238;28;20104;-68
2023/04/03 10:50:05;;;;;;;16.05;2.85;;;17.60;49.20;;;;;;5051564;28;20090;-65
2023/04/03 10:52:44;;;;;;;13.50;2.70;;;17.60;49.20;;;;;;5053481;28;20139;-66
2023/04/03 10:55:29;;;;;;;14.32;3.45;;;17.60;49.10;;;;;;5050461;28;20068;-66
2023/04/03 10:57:58;;;;;;;12.05;3.97;;;17.60;49.20;;;;;;5050074;28;20508;-66
2023/04/03 11:00:44;;;;;;;18.67;4.90;;;17.60;50.30;;;;;;5053892;28;20371;-66
2023/04/03 11:03:32;;;;;;;18.48;4.22;;;17.40;51.20;;;;;;5053588;28;20084;-68
2023/04/03 11:06:02;;;;;;;14.88;3.95;;;17.30;51.70;;;;;;5051944;28;20056;-66
2023/04/03 11:09:22;;;;;;;15.88;4.55;;;17.30;51.80;;;;;;5056768;28;20604;-68
2023/04/03 11:11:51;;;;;;;23.95;4.90;;;17.20;51.80;;;;;;5026400;28;20529;-67
2023/04/03 11:14:26;;;;;;;11.52;3.70;;;17.20;51.90;;;;;;5028939;28;20133;-66
2023/04/03 11:17:11;;;;;;;13.88;3.58;;;17.20;51.80;;;;;;5026768;28;20173;-67
2023/04/03 11:20:12;;;;;;;30.55;4.18;;;17.30;51.80;;;;;;5031215;28;20108;-66
2023/04/03 11:22:43;;;;;;;20.75;3.67;;;17.30;51.70;;;;;;5000952;28;20086;-65
2023/04/03 11:25:12;;;;;;;15.77;3.58;;;17.30;51.40;;;;;;5029812;28;20480;-65
2023/04/03 11:27:58;;;;;;;8.45;3.60;;;17.20;51.30;;;;;;5030846;28;20091;-66
2023/04/03 11:30:34;;;;;;;27.75;5.20;;;17.20;51.30;;;;;;5027650;28;20114;-65
2023/04/03 11:33:11;;;;;;;21.30;4.43;;;17.20;51.70;;;;;;5031232;28;20104;-66
2023/04/03 11:35:42;;;;;;;11.05;3.47;;;17.10;52.00;;;;;;5030244;28;20097;-67
2023/04/03 11:38:22;;;;;;;14.02;3.92;;;17.00;52.20;;;;;;5027784;28;20176;-67
2023/04/03 11:40:50;;;;;;;9.18;3.50;;;16.90;52.20;;;;;;5031938;28;20098;-65
2023/04/03 11:43:27;;;;;;;13.25;3.20;;;16.80;51.80;;;;;;5024290;28;20079;-66
2023/04/03 11:46:02;;;;;;;8.05;3.33;;;16.80;50.30;;;;;;5029963;28;20069;-66
2023/04/03 11:48:32;;;;;;;12.90;2.95;;;16.90;49.10;;;;;;5051721;28;20297;-67
2023/04/03 11:51:12;;;;;;;8.88;2.78;;;17.00;47.90;;;;;;5053907;28;20089;-65
2023/04/03 11:53:40;;;;;;;15.15;3.05;;;17.10;48.20;;;;;;5058567;28;20087;-67
2023/04/03 11:56:28;;;;;;;23.52;3.47;;;17.00;48.70;;;;;;5055017;28;20069;-66
2023/04/03 11:59:16;;;;;;;15.95;3.08;;;17.00;49.10;;;;;;5053413;28;20105;-67
2023/04/03 12:02:28;;;;;;;22.08;3.40;;;17.00;49.30;;;;;;5056667;28;20119;-65
2023/04/03 12:05:42;;;;;;;12.68;2.92;;;17.00;49.80;;;;;;5055513;28;20071;-67
2023/04/03 12:08:27;;;;;;;17.27;3.45;;;16.90;50.10;;;;;;5009809;28;20102;-67
2023/04/03 12:11:11;;;;;;;25.17;3.75;;;16.90;50.60;;;;;;5011976;28;20096;-65
2023/04/03 12:13:44;;;;;;;17.25;3.28;;;16.80;51.30;;;;;;5013101;28;20090;-67
2023/04/03 12:16:38;;;;;;;15.93;3.45;;;16.70;51.60;;;;;;5010311;28;20078;-67
2023/04/03 12:19:22;;;;;;;11.48;3.00;;;16.70;52.00;;;;;;5015130;28;20114;-65
2023/04/03 12:21:49;;;;;;;17.15;2.88;;;16.60;52.80;;;;;;5009861;28;20074;-65
2023/04/03 12:24:21;;;;;;;22.23;3.75;;;16.60;53.00;;;;;;5010742;28;20089;-65
2023/04/03 12:26:51;;;;;;;26.95;4.32;;;16.50;53.70;;;;;;5006557;28;20557;-67
2023/04/03 12:29:32;;;;;;;16.90;3.38;;;16.50;53.50;;;;;;5011248;28;20089;-65
2023/04/03 12:32:10;;;;;;;19.88;3.65;;;16.50;53.30;;;;;;5011138;28;20090;-65
2023/04/03 12:35:02;;;;;;;18.08;3.50;;;16.60;53.60;;;;;;5015232;28;20106;-66
2023/04/03 12:38:09;;;;;;;22.75;3.80;;;16.50;54.50;;;;;;5007551;28;20556;-68
2023/04/03 12:40:42;;;;;;;23.13;3.47;;;16.40;55.00;;;;;;5007953;28;20188;-66
2023/04/03 12:43:45;;;;;;;15.90;2.67;;;16.40;55.30;;;;;;5009136;28;20089;-68
2023/04/03 12:46:26;;;;;;;17.42;3.40;;;16.40;55.80;;;;;;5050139;28;20119;-68
2023/04/03 12:48:58;;;;;;;18.83;2.90;;;16.30;56.00;;;;;;5051795;28;20077;-66
2023/04/03 12:51:42;;;;;;;29.17;4.00;;;16.30;56.20;;;;;;5051268;28;20123;-68
2023/04/03 12:54:17;;;;;;;19.60;3.40;;;16.30;56.50;;;;;;5053784;28;20080;-68
2023/04/03 12:56:44;;;;;;;15.85;3.58;;;16.30;56.80;;;;;;5051369;28;20073;-65
2023/04/03 12:59:28;;;;;;;21.60;3.67;;;16.20;57.00;;;;;;5055176;28;20149;-66